Xunwu, China
Current Conditions -  °F | °C
As of 8:00 PM on Saturday 25 Oct 2014 (Local Time) from ZGOW Reporting Station
Clear Clear  
Wind Chill: 75°   Ceiling: Unl
Heat Index: 75°   Visibility: 6mi
Dew Point: 68°   Wind: 4mph
Humidity: 78%   Direction: 100°E
Pressure: 30.06"   Gusts: NA
Location:  24.95°N, 115.65°E
Report Text: ZGOW 251200Z 10002MPS CAVOK 24/20 Q1018 NOSIG
Loading
Personal Weather Stations






























Interactive Weather Map New forecast layout! Learn more

10-Day Weather Forecast

Advertisements
Track Severe Weather on mobile